Time;durP1;ratioP1;P1;durP2;ratioP2;P2;SDS_P1;SDS_P2;PMS_P1;PMS_P2;Temp;Humidity;BMP_temperature;BMP_pressure;BME280_temperature;BME280_humidity;BME280_pressure;Samples;Min_cycle;Max_cycle;Signal;HPM_P1;HPM_P2
2022/08/13 00:01:37;;;;;;;;;12.67;11.00;;;;;26.05;39.37;100788.50;5007916;28;45992;-83
2022/08/13 00:04:11;;;;;;;;;10.00;8.33;;;;;25.90;39.40;100762.34;5029987;28;45383;-83
2022/08/13 00:09:06;;;;;;;;;15.00;13.33;;;;;26.00;40.08;100792.25;5017428;28;45340;-82
2022/08/13 00:14:16;;;;;;;;;16.33;13.33;;;;;25.92;40.40;100798.56;5040883;28;45411;-85
2022/08/13 00:16:42;;;;;;;;;12.67;11.33;;;;;25.88;40.64;100792.75;5029596;28;46884;-84
2022/08/13 00:19:08;;;;;;;;;9.67;9.67;;;;;25.84;40.93;100805.75;5041266;28;45409;-85
2022/08/13 00:21:34;;;;;;;;;9.00;8.33;;;;;25.77;41.58;100796.88;5030271;28;45368;-84
2022/08/13 00:24:00;;;;;;;;;9.33;9.33;;;;;25.67;41.65;100780.22;5047894;28;46141;-83
2022/08/13 00:26:27;;;;;;;;;11.33;11.33;;;;;25.75;41.36;100804.81;5010331;28;48192;-83
2022/08/13 00:28:54;;;;;;;;;10.00;10.00;;;;;25.72;41.50;100799.81;5012963;28;45745;-84
2022/08/13 00:31:24;;;;;;;;;9.67;9.67;;;;;25.67;41.59;100797.09;5012608;28;45968;-85
2022/08/13 00:33:51;;;;;;;;;11.00;11.00;;;;;25.50;41.25;100775.22;5010920;28;47250;-83
2022/08/13 00:36:17;;;;;;;;;11.33;11.33;;;;;25.47;41.38;100775.84;5014795;28;46571;-84
2022/08/13 00:38:44;;;;;;;;;11.67;11.00;;;;;25.46;41.33;100783.41;5016906;28;45508;-83
2022/08/13 00:41:37;;;;;;;;;10.67;9.33;;;;;25.57;41.56;100797.28;5017210;28;45717;-82
2022/08/13 00:43:56;;;;;;;;;10.67;9.00;;;;;25.43;41.01;100777.59;5019596;28;45710;-83
2022/08/13 00:46:22;;;;;;;;;8.33;8.33;;;;;25.32;41.91;100780.56;5025630;28;45537;-82
2022/08/13 00:48:48;;;;;;;;;9.33;9.33;;;;;25.49;41.09;100802.44;5027354;28;45427;-85
2022/08/13 00:51:16;;;;;;;;;10.33;9.33;;;;;25.44;41.48;100804.53;5030780;28;45701;-84
2022/08/13 00:53:43;;;;;;;;;8.33;8.00;;;;;25.26;41.55;100778.16;5012839;28;46219;-83
2022/08/13 00:56:10;;;;;;;;;9.00;9.00;;;;;25.36;41.64;100804.09;5012417;28;45727;-84
2022/08/13 00:58:37;;;;;;;;;9.00;9.00;;;;;25.29;41.97;100794.38;5011229;28;45510;-82
2022/08/13 01:01:05;;;;;;;;;9.67;9.67;;;;;25.35;41.90;100808.03;5012277;28;45800;-82
2022/08/13 01:03:34;;;;;;;;;9.00;8.33;;;;;25.32;41.89;100799.41;5013398;28;45807;-85
2022/08/13 01:06:00;;;;;;;;;10.00;8.67;;;;;25.15;41.88;100781.13;5014042;28;45446;-83
2022/08/13 01:08:31;;;;;;;;;11.00;9.00;;;;;25.24;41.49;100800.06;5013737;28;45891;-82
2022/08/13 01:11:00;;;;;;;;;9.00;9.00;;;;;25.23;41.93;100804.03;5015259;28;45486;-84
2022/08/13 01:13:26;;;;;;;;;9.67;9.67;;;;;25.21;41.58;100804.34;5014072;28;45944;-86
2022/08/13 01:15:52;;;;;;;;;8.67;8.00;;;;;25.05;41.80;100788.91;5015424;28;45481;-82
2022/08/13 01:18:22;;;;;;;;;8.67;8.00;;;;;25.09;41.98;100803.97;5014077;28;45433;-82
2022/08/13 01:20:58;;;;;;;;;8.33;8.33;;;;;25.09;42.05;100807.63;5013425;28;45754;-81
2022/08/13 01:23:25;;;;;;;;;7.33;7.33;;;;;25.10;42.24;100809.25;5016934;28;45334;-83
2022/08/13 01:25:54;;;;;;;;;8.00;7.67;;;;;25.00;42.09;100792.59;5018359;28;46286;-84
2022/08/13 01:28:23;;;;;;;;;10.67;9.67;;;;;25.05;42.25;100811.34;5017287;28;45771;-84
2022/08/13 01:30:52;;;;;;;;;10.33;7.67;;;;;24.89;42.05;100788.28;5021959;28;45588;-82
2022/08/13 01:33:18;;;;;;;;;8.33;8.33;;;;;24.97;42.16;100796.88;5040315;28;45881;-83
2022/08/13 01:35:49;;;;;;;;;11.67;10.00;;;;;24.93;42.37;100800.59;5027666;28;45586;-83
2022/08/13 01:38:15;;;;;;;;;8.33;8.33;;;;;24.84;42.23;100801.25;5029558;28;45522;-83
2022/08/13 01:40:43;;;;;;;;;8.67;8.67;;;;;24.83;41.85;100796.78;5039332;28;45424;-83
2022/08/13 01:43:10;;;;;;;;;7.00;7.00;;;;;24.84;42.32;100809.66;5039091;28;45474;-84
2022/08/13 01:45:38;;;;;;;;;10.33;9.33;;;;;24.65;42.30;100780.78;5038252;28;46799;-82
2022/08/13 01:50:49;;;;;;;;;11.67;11.67;;;;;24.76;42.59;100809.50;5020106;28;45399;-84
2022/08/13 01:53:16;;;;;;;;;9.00;9.00;;;;;24.71;42.53;100816.03;5041028;28;45948;-83
2022/08/13 01:55:45;;;;;;;;;13.33;11.00;;;;;24.60;42.62;100789.28;5021094;28;46214;-84
2022/08/13 01:58:19;;;;;;;;;9.33;9.00;;;;;24.65;42.66;100800.44;5018664;28;45400;-83
2022/08/13 02:00:48;;;;;;;;;12.33;10.00;;;;;24.65;42.93;100809.66;5020337;28;45442;-84
2022/08/13 02:03:17;;;;;;;;;17.33;14.00;;;;;24.47;42.94;100779.63;5019430;28;46370;-82
2022/08/13 02:05:44;;;;;;;;;13.33;11.67;;;;;24.48;43.35;100796.13;5016872;28;46772;-80
2022/08/13 02:08:11;;;;;;;;;13.67;9.33;;;;;24.63;43.32;100822.34;5014556;28;46441;-79
2022/08/13 02:10:42;;;;;;;;;9.67;9.67;;;;;24.64;42.88;100816.44;5021607;28;45420;-82
2022/08/13 02:13:13;;;;;;;;;11.33;9.00;;;;;24.57;42.69;100812.31;5019115;28;45643;-82
2022/08/13 02:15:40;;;;;;;;;11.33;8.33;;;;;24.49;42.78;100803.44;5014589;28;46337;-83
2022/08/13 02:18:14;;;;;;;;;11.33;10.33;;;;;24.40;42.64;100790.38;5027121;28;45889;-85
2022/08/13 02:20:41;;;;;;;;;8.67;8.67;;;;;24.35;42.97;100796.88;5022905;28;45485;-84
2022/08/13 02:23:07;;;;;;;;;8.67;8.67;;;;;24.44;43.36;100820.31;5017928;28;47138;-82
2022/08/13 02:25:35;;;;;;;;;10.33;9.00;;;;;24.33;43.34;100810.38;5021762;28;45514;-84
2022/08/13 02:28:01;;;;;;;;;13.00;10.67;;;;;24.22;43.53;100786.41;5020333;28;45534;-84
2022/08/13 02:30:29;;;;;;;;;14.67;10.00;;;;;24.36;43.23;100815.38;5021565;28;44758;-86
2022/08/13 02:32:56;;;;;;;;;11.00;8.67;;;;;24.30;43.90;100814.59;5029112;28;46362;-84
2022/08/13 02:35:23;;;;;;;;;9.00;9.00;;;;;24.29;44.30;100820.50;5040071;28;45865;-83
2022/08/13 02:37:48;;;;;;;;;9.33;8.33;;;;;24.22;43.83;100809.69;5028034;28;45910;-84
2022/08/13 02:42:59;;;;;;;;;6.33;6.33;;;;;24.19;44.12;100813.06;5024376;28;45425;-78
2022/08/13 02:45:27;;;;;;;;;10.33;9.67;;;;;24.11;44.21;100808.13;5018426;28;46492;-79
2022/08/13 02:47:57;;;;;;;;;5.67;5.67;;;;;24.01;43.85;100795.06;5023957;28;45514;-77
2022/08/13 02:50:24;;;;;;;;;9.00;7.33;;;;;24.01;43.76;100791.44;5033069;28;45446;-79
2022/08/13 02:52:51;;;;;;;;;7.67;7.33;;;;;24.13;44.09;100812.31;5022934;28;45708;-80
2022/08/13 02:55:18;;;;;;;;;8.33;7.00;;;;;24.12;43.87;100813.44;5012617;28;46151;-78
2022/08/13 02:57:44;;;;;;;;;9.67;9.33;;;;;24.06;44.04;100802.59;5026880;28;45686;-80
2022/08/13 03:00:10;;;;;;;;;8.33;7.00;;;;;24.08;44.50;100812.34;5028994;28;45703;-78
2022/08/13 03:02:44;;;;;;;;;8.67;7.33;;;;;24.02;44.19;100807.13;5014511;28;45363;-78
2022/08/13 03:05:14;;;;;;;;;11.67;9.67;;;;;24.04;44.27;100818.84;5014408;28;45795;-78
2022/08/13 03:07:44;;;;;;;;;7.67;7.33;;;;;23.98;44.63;100818.06;5014985;28;45794;-79
2022/08/13 03:10:12;;;;;;;;;7.33;7.33;;;;;23.99;44.55;100822.53;5015230;28;45500;-77
2022/08/13 03:12:46;;;;;;;;;9.67;9.33;;;;;23.93;44.36;100807.75;5015081;28;45478;-80
2022/08/13 03:15:13;;;;;;;;;7.33;7.33;;;;;23.81;44.82;100787.72;5028043;28;46643;-80
2022/08/13 03:17:40;;;;;;;;;5.00;5.00;;;;;23.79;44.16;100784.38;5031033;28;45832;-77
2022/08/13 03:20:09;;;;;;;;;8.67;7.33;;;;;23.89;44.21;100808.66;5014839;28;45571;-79
2022/08/13 03:22:55;;;;;;;;;7.67;6.33;;;;;23.90;44.15;100807.53;5013940;28;45551;-78
2022/08/13 03:25:22;;;;;;;;;5.67;5.67;;;;;23.90;44.35;100807.53;5012086;28;45476;-77
2022/08/13 03:27:49;;;;;;;;;8.00;7.33;;;;;23.85;44.14;100804.72;5029491;28;45593;-79
2022/08/13 03:30:16;;;;;;;;;8.00;6.33;;;;;23.86;44.91;100803.66;5015000;28;45482;-79
2022/08/13 03:32:44;;;;;;;;;11.67;7.00;;;;;23.71;44.57;100779.41;5014691;28;45388;-78
2022/08/13 03:35:20;;;;;;;;;9.00;7.67;;;;;23.53;44.37;100758.59;5013503;28;47171;-78
2022/08/13 03:37:55;;;;;;;;;6.00;6.00;;;;;23.75;44.95;100800.91;5002712;28;45462;-77
2022/08/13 03:40:23;;;;;;;;;7.67;7.67;;;;;23.68;45.04;100796.81;5012338;28;45725;-79
2022/08/13 03:42:49;;;;;;;;;5.00;5.00;;;;;23.68;45.32;100806.03;5012273;28;45863;-79
2022/08/13 03:45:16;;;;;;;;;7.67;7.00;;;;;23.68;45.45;100806.03;5012459;28;47646;-80
2022/08/13 03:47:43;;;;;;;;;7.67;7.67;;;;;23.71;46.16;100816.66;5013448;28;45333;-78
2022/08/13 03:50:11;;;;;;;;;7.33;6.00;;;;;23.69;46.13;100813.31;5013891;28;45509;-78
2022/08/13 03:52:38;;;;;;;;;8.00;7.33;;;;;23.66;46.04;100819.50;5013735;28;45640;-78
2022/08/13 03:55:12;;;;;;;;;8.00;6.33;;;;;23.60;46.23;100809.50;5012020;28;46973;-77
2022/08/13 03:57:41;;;;;;;;;8.33;6.00;;;;;23.52;46.25;100807.31;5013828;28;45563;-78
2022/08/13 04:00:11;;;;;;;;;8.67;7.00;;;;;23.54;46.22;100811.50;5013931;28;45417;-78
2022/08/13 04:02:41;;;;;;;;;9.33;6.00;;;;;23.54;46.00;100805.91;5014358;28;45950;-79
2022/08/13 04:05:16;;;;;;;;;6.67;6.67;;;;;23.53;45.78;100820.19;5012179;28;47183;-79
2022/08/13 04:07:43;;;;;;;;;7.67;7.33;;;;;23.45;46.22;100805.69;5023865;28;45887;-76
2022/08/13 04:10:11;;;;;;;;;8.67;6.33;;;;;23.49;46.10;100816.31;5033123;28;45665;-80
2022/08/13 04:12:37;;;;;;;;;6.33;6.33;;;;;23.47;46.12;100811.00;5019685;28;45577;-79
2022/08/13 04:15:05;;;;;;;;;6.00;6.00;;;;;23.37;45.78;100797.09;5013253;28;46589;-78
2022/08/13 04:17:30;;;;;;;;;7.67;6.00;;;;;23.39;46.00;100809.69;5012185;28;45754;-79
2022/08/13 04:19:57;;;;;;;;;5.00;5.00;;;;;23.36;45.85;100801.03;5013680;28;45332;-79
2022/08/13 04:22:26;;;;;;;;;8.33;6.67;;;;;23.36;46.41;100810.25;5026347;28;45796;-79
2022/08/13 04:24:51;;;;;;;;;9.00;9.00;;;;;23.30;46.48;100800.25;5033247;28;45826;-79
2022/08/13 04:27:16;;;;;;;;;9.33;7.67;;;;;23.33;46.82;100808.06;5030017;28;45626;-79
2022/08/13 04:29:42;;;;;;;;;11.00;9.33;;;;;23.31;47.04;100807.53;5013938;28;45722;-78
2022/08/13 04:32:07;;;;;;;;;8.67;6.67;;;;;23.29;47.03;100809.75;5013126;28;45565;-78
2022/08/13 04:34:33;;;;;;;;;10.67;10.67;;;;;23.23;47.34;100799.75;5013536;28;46117;-78
2022/08/13 04:37:01;;;;;;;;;11.67;10.33;;;;;23.27;47.37;100812.84;5015509;28;45508;-82
2022/08/13 04:39:27;;;;;;;;;11.67;11.00;;;;;23.22;47.50;100796.13;5016272;28;45318;-81
2022/08/13 04:41:53;;;;;;;;;11.00;9.33;;;;;23.22;47.23;100798.94;5017306;28;45620;-81
2022/08/13 04:44:20;;;;;;;;;11.00;9.33;;;;;23.18;47.56;100791.41;5015766;28;48090;-83
2022/08/13 04:46:45;;;;;;;;;10.33;10.00;;;;;23.32;47.37;100809.19;5016836;28;45427;-83
2022/08/13 04:49:12;;;;;;;;;9.33;8.33;;;;;23.41;47.26;100809.38;5016223;28;45814;-82
2022/08/13 04:51:40;;;;;;;;;12.33;9.33;;;;;23.49;47.21;100805.97;5030539;28;45463;-83
2022/08/13 04:54:06;;;;;;;;;8.00;8.00;;;;;23.73;46.32;100803.19;5024177;28;47248;-82
2022/08/13 04:56:33;;;;;;;;;8.67;7.67;;;;;23.95;45.87;100810.25;5022091;28;45470;-84
2022/08/13 04:59:03;;;;;;;;;9.67;8.00;;;;;24.15;45.29;100807.22;5034974;28;45439;-81
2022/08/13 05:01:29;;;;;;;;;5.00;5.00;;;;;24.52;44.58;100816.00;5033608;28;45610;-82
2022/08/13 05:03:55;;;;;;;;;7.33;6.00;;;;;24.87;43.74;100807.41;5017713;28;45515;-84
2022/08/13 05:06:21;;;;;;;;;7.67;7.67;;;;;25.16;43.03;100787.56;5019664;28;44875;-84
2022/08/13 05:08:48;;;;;;;;;16.00;15.67;;;;;25.62;42.07;100797.19;5029686;28;45441;-83
2022/08/13 05:11:15;;;;;;;;;13.67;12.67;;;;;26.00;41.15;100803.47;5020696;28;46398;-83
2022/08/13 05:13:45;;;;;;;;;12.00;8.33;;;;;26.37;40.38;100801.59;5037730;28;47593;-81
2022/08/13 05:16:16;;;;;;;;;10.33;9.67;;;;;26.64;39.79;100796.25;5037550;28;45061;-82
2022/08/13 05:18:54;;;;;;;;;9.33;9.00;;;;;26.97;38.90;100776.34;5029178;28;45560;-86
2022/08/13 05:21:22;;;;;;;;;9.67;8.67;;;;;27.57;38.33;100812.56;5026203;28;45482;-84
2022/08/13 05:23:53;;;;;;;;;8.00;8.00;;;;;28.02;37.63;100813.63;5029336;28;45353;-85
2022/08/13 05:26:23;;;;;;;;;9.00;9.00;;;;;28.49;36.58;100817.59;5033574;28;45545;-85
2022/08/13 05:28:50;;;;;;;;;11.33;9.67;;;;;28.77;35.19;100791.91;5034088;28;45535;-84
2022/08/13 05:31:19;;;;;;;;;13.00;11.33;;;;;29.40;34.88;100814.16;5021537;28;46159;-82
2022/08/13 05:33:44;;;;;;;;;7.33;7.33;;;;;29.72;34.09;100787.31;5033271;28;45459;-82
2022/08/13 05:36:10;;;;;;;;;9.00;7.67;;;;;30.19;33.15;100788.44;5036300;28;45434;-83
2022/08/13 05:38:36;;;;;;;;;8.67;8.00;;;;;30.71;32.29;100799.44;5019116;28;45373;-82
2022/08/13 05:41:04;;;;;;;;;7.00;6.67;;;;;30.97;31.91;100773.75;5038237;28;45882;-82
2022/08/13 05:43:38;;;;;;;;;10.00;8.33;;;;;31.61;31.29;100802.00;5037829;28;45399;-82
2022/08/13 05:46:09;;;;;;;;;6.00;6.00;;;;;32.10;30.48;100810.56;5028575;28;45502;-81
2022/08/13 05:48:38;;;;;;;;;8.67;8.67;;;;;32.52;29.46;100809.50;5029473;28;45976;-81
2022/08/13 05:51:08;;;;;;;;;9.00;9.00;;;;;32.96;29.21;100811.66;5019690;28;45557;-82
2022/08/13 05:53:38;;;;;;;;;9.00;6.33;;;;;33.38;28.82;100814.09;5021835;28;46175;-81
2022/08/13 05:56:05;;;;;;;;;7.00;7.00;;;;;33.53;27.93;100806.78;5038572;28;45743;-79
2022/08/13 05:58:31;;;;;;;;;10.67;9.67;;;;;33.84;27.81;100813.75;5050168;28;45540;-80
2022/08/13 06:03:43;;;;;;;;;9.00;5.33;;;;;33.80;27.44;100812.81;5009581;28;45472;-82
2022/08/13 06:06:11;;;;;;;;;6.33;6.33;;;;;34.01;27.01;100821.09;5017327;28;45879;-83
2022/08/13 06:08:43;;;;;;;;;6.00;6.00;;;;;34.12;26.78;100819.34;5017489;28;45507;-81
2022/08/13 06:11:13;;;;;;;;;7.00;5.67;;;;;34.55;26.29;100830.94;5015885;28;46482;-79
2022/08/13 06:13:39;;;;;;;;;5.00;5.00;;;;;34.68;26.35;100812.53;5016445;28;46144;-79
2022/08/13 06:16:14;;;;;;;;;6.67;6.67;;;;;35.03;25.86;100830.81;5014117;28;45443;-76
2022/08/13 06:18:43;;;;;;;;;6.67;6.67;;;;;35.23;25.13;100809.66;5016775;28;45336;-83
2022/08/13 06:21:11;;;;;;;;;4.67;4.67;;;;;35.37;24.96;100805.47;5018087;28;45747;-80
2022/08/13 06:23:38;;;;;;;;;5.33;5.00;;;;;35.72;24.26;100819.56;5018566;28;45357;-80
2022/08/13 06:26:06;;;;;;;;;5.00;5.00;;;;;35.71;24.51;100801.63;5014458;28;45360;-79
2022/08/13 06:28:33;;;;;;;;;7.33;5.67;;;;;35.95;24.35;100801.66;5014182;28;45416;-80
2022/08/13 06:31:07;;;;;;;;;5.00;5.00;;;;;36.15;23.94;100825.22;5013693;28;45716;-79
2022/08/13 06:33:36;;;;;;;;;6.33;6.33;;;;;36.46;24.08;100812.69;5013539;28;47109;-79
2022/08/13 06:36:10;;;;;;;;;6.67;6.67;;;;;36.90;22.99;100823.56;5015240;28;45404;-79
2022/08/13 06:38:49;;;;;;;;;4.00;4.00;;;;;37.27;23.14;100821.97;5015440;28;45434;-79
2022/08/13 06:41:17;;;;;;;;;5.67;4.00;;;;;37.56;22.52;100822.28;5015555;28;45706;-79
2022/08/13 06:43:53;;;;;;;;;4.00;4.00;;;;;37.59;22.37;100833.78;5015681;28;45784;-78
2022/08/13 06:46:25;;;;;;;;;4.00;4.00;;;;;37.79;22.18;100831.56;5014060;28;45525;-79
2022/08/13 06:48:52;;;;;;;;;6.33;4.00;;;;;37.83;22.07;100822.97;5016276;28;45501;-79
2022/08/13 06:51:20;;;;;;;;;5.67;5.00;;;;;37.85;22.07;100816.88;5015389;28;45464;-78
2022/08/13 06:53:49;;;;;;;;;7.33;6.33;;;;;37.90;21.66;100823.06;5015894;28;45758;-80
2022/08/13 06:56:21;;;;;;;;;6.00;5.00;;;;;38.05;21.64;100824.00;5014629;28;45455;-78
2022/08/13 06:58:48;;;;;;;;;5.00;5.00;;;;;38.13;21.53;100824.88;5012691;28;45445;-79
2022/08/13 07:01:19;;;;;;;;;7.00;5.67;;;;;38.24;21.99;100833.59;5016016;28;45747;-79
2022/08/13 07:03:46;;;;;;;;;5.33;4.67;;;;;38.34;21.45;100809.91;5004659;28;46827;-81
2022/08/13 07:06:18;;;;;;;;;5.00;5.00;;;;;38.63;21.50;100821.56;5018264;28;45517;-81
2022/08/13 07:08:45;;;;;;;;;5.33;5.33;;;;;38.93;20.75;100829.13;5029874;28;45578;-82
2022/08/13 07:11:23;;;;;;;;;6.00;6.00;;;;;39.11;20.63;100823.50;5029969;28;45419;-82
2022/08/13 07:13:58;;;;;;;;;5.67;5.00;;;;;39.65;20.68;100829.41;5025720;28;45725;-83
2022/08/13 07:16:27;;;;;;;;;7.00;7.00;;;;;39.69;20.24;100813.03;5023367;28;45728;-83
2022/08/13 07:18:53;;;;;;;;;4.67;4.67;;;;;40.18;19.79;100817.16;5013318;28;45673;-81
2022/08/13 07:21:24;;;;;;;;;5.00;5.00;;;;;40.77;19.63;100833.88;5049447;28;46033;-83
2022/08/13 07:23:51;;;;;;;;;5.00;5.00;;;;;41.21;19.25;100825.09;5039358;28;45442;-85
2022/08/13 07:26:18;;;;;;;;;6.67;5.33;;;;;41.46;19.01;100830.75;5025509;28;45521;-83
2022/08/13 07:28:51;;;;;;;;;5.33;5.33;;;;;41.70;18.72;100828.94;5035802;28;45406;-82
2022/08/13 07:31:28;;;;;;;;;5.33;5.33;;;;;41.57;18.32;100810.50;5018644;28;45402;-82
2022/08/13 07:33:56;;;;;;;;;4.67;4.67;;;;;41.70;18.53;100823.16;5017994;28;45717;-83
2022/08/13 07:36:24;;;;;;;;;5.67;5.67;;;;;41.85;18.62;100794.28;5008087;28;45645;-81
2022/08/13 07:38:51;;;;;;;;;4.00;4.00;;;;;42.17;18.39;100834.34;5019827;28;45384;-82
2022/08/13 07:41:20;;;;;;;;;5.33;5.33;;;;;42.34;17.89;100824.72;5028714;28;45069;-83
2022/08/13 07:43:46;;;;;;;;;6.00;6.00;;;;;42.47;17.64;100842.28;5005866;28;47236;-82
2022/08/13 07:46:15;;;;;;;;;5.33;4.33;;;;;42.70;17.87;100840.88;5034090;28;45690;-82
2022/08/13 07:48:47;;;;;;;;;8.00;5.00;;;;;42.75;17.63;100808.66;5035530;28;45515;-83
2022/08/13 07:51:22;;;;;;;;;5.33;5.00;;;;;43.13;16.98;100825.09;5016414;28;45514;-81
2022/08/13 07:53:52;;;;;;;;;5.33;5.33;;;;;43.52;17.26;100841.06;5032082;28;47118;-83
2022/08/13 07:56:20;;;;;;;;;5.00;5.00;;;;;43.98;16.75;100836.66;5035426;28;45321;-81
2022/08/13 07:58:46;;;;;;;;;6.00;6.00;;;;;43.52;16.83;100798.59;5032298;28;44814;-82
2022/08/13 08:01:11;;;;;;;;;4.00;4.00;;;;;43.83;17.03;100815.03;5024739;28;45465;-83
2022/08/13 08:03:40;;;;;;;;;5.00;5.00;;;;;44.41;16.38;100838.00;5027844;28;47113;-81
2022/08/13 08:06:09;;;;;;;;;6.67;5.67;;;;;44.57;16.25;100834.34;5014723;28;45492;-81
2022/08/13 08:08:35;;;;;;;;;4.00;4.00;;;;;44.83;16.27;100841.31;5001502;28;45625;-80
2022/08/13 08:11:02;;;;;;;;;3.67;3.67;;;;;44.95;16.05;100836.94;5029193;28;45383;-81
2022/08/13 08:13:32;;;;;;;;;3.33;3.33;;;;;45.09;16.22;100822.16;5003366;28;46251;-82
2022/08/13 08:15:58;;;;;;;;;4.00;4.00;;;;;45.45;15.99;100832.16;5015621;28;45537;-81
2022/08/13 08:18:24;;;;;;;;;5.00;5.00;;;;;44.36;16.26;100819.06;5014638;28;45444;-82
2022/08/13 08:21:04;;;;;;;;;4.33;4.33;;;;;42.71;16.88;100830.94;5016394;28;45373;-82
2022/08/13 08:23:35;;;;;;;;;5.00;3.33;;;;;41.14;18.16;100842.41;5016081;28;46331;-82
2022/08/13 08:26:06;;;;;;;;;4.00;4.00;;;;;39.59;19.71;100848.28;5019539;28;45344;-83
2022/08/13 08:28:33;;;;;;;;;5.00;5.00;;;;;38.11;20.71;100808.09;5025908;28;45774;-81
2022/08/13 08:31:01;;;;;;;;;5.67;5.67;;;;;37.22;21.48;100830.88;5029633;28;45840;-83
2022/08/13 08:33:27;;;;;;;;;4.00;4.00;;;;;36.44;21.73;100843.69;5017006;28;47533;-83
2022/08/13 08:35:55;;;;;;;;;4.67;4.67;;;;;37.08;21.68;100837.25;5017238;28;45706;-81
2022/08/13 08:43:57;;;;;;;;;4.67;4.67;;;;;41.18;19.03;100844.00;5016933;28;45834;-81
2022/08/13 08:46:24;;;;;;;;;6.33;6.33;;;;;42.38;18.40;100838.28;5014703;28;45770;-82
2022/08/13 08:48:54;;;;;;;;;6.33;5.33;;;;;43.11;17.16;100836.28;5018352;28;45835;-85
2022/08/13 08:51:20;;;;;;;;;5.00;5.00;;;;;44.10;17.01;100843.88;4996093;28;46419;-83
2022/08/13 08:53:47;;;;;;;;;3.00;3.00;;;;;44.58;16.19;100830.22;5031626;28;45561;-83
2022/08/13 08:56:16;;;;;;;;;5.00;5.00;;;;;44.86;16.15;100833.84;5017873;28;45380;-82
2022/08/13 08:58:42;;;;;;;;;5.00;5.00;;;;;45.13;15.86;100837.38;5024102;28;45435;-82
2022/08/13 09:01:14;;;;;;;;;4.00;4.00;;;;;45.85;15.36;100854.41;5027195;28;45688;-84
2022/08/13 09:03:42;;;;;;;;;5.33;5.00;;;;;46.41;14.83;100847.59;5020280;28;45815;-83
2022/08/13 09:06:11;;;;;;;;;3.00;2.67;;;;;46.55;15.06;100841.41;5018431;28;45424;-82
2022/08/13 09:08:39;;;;;;;;;3.00;3.00;;;;;47.09;14.39;100839.88;5019711;28;45384;-82
2022/08/13 09:11:05;;;;;;;;;5.00;4.33;;;;;47.63;14.00;100837.41;5017447;28;47202;-83
2022/08/13 09:13:33;;;;;;;;;4.00;4.00;;;;;48.23;13.96;100831.63;5019634;28;46656;-80
2022/08/13 09:16:00;;;;;;;;;4.00;4.00;;;;;48.44;13.47;100838.00;5031661;28;45525;-81
2022/08/13 09:18:27;;;;;;;;;4.33;4.33;;;;;48.49;13.75;100827.84;5037604;28;45530;-82
2022/08/13 09:20:53;;;;;;;;;3.33;3.33;;;;;48.51;13.37;100822.34;5037639;28;45739;-81
2022/08/13 09:23:18;;;;;;;;;3.67;3.67;;;;;48.25;13.51;100805.81;5025899;28;45658;-83
2022/08/13 09:25:48;;;;;;;;;4.33;4.33;;;;;48.41;13.65;100809.81;5025312;28;45412;-81
2022/08/13 09:28:26;;;;;;;;;4.00;4.00;;;;;48.52;13.72;100827.69;5054105;28;45770;-83
2022/08/13 09:30:54;;;;;;;;;3.33;3.33;;;;;48.11;13.53;100790.97;5048450;28;46249;-83
2022/08/13 09:33:23;;;;;;;;;3.67;3.67;;;;;47.82;13.48;100836.38;5029950;28;46277;-83
2022/08/13 09:35:51;;;;;;;;;3.67;3.67;;;;;47.47;13.64;100810.06;5033081;28;45595;-84
2022/08/13 09:38:21;;;;;;;;;6.00;4.00;;;;;47.98;13.74;100822.94;5018781;28;45736;-83
2022/08/13 09:41:09;;;;;;;;;5.00;5.00;;;;;48.06;13.84;100830.13;5030827;28;45509;-84
2022/08/13 09:43:39;;;;;;;;;4.33;4.33;;;;;48.48;13.10;100829.94;5030279;28;47162;-84
2022/08/13 09:46:11;;;;;;;;;3.67;3.67;;;;;48.53;13.33;100819.81;5027821;28;45355;-82
2022/08/13 09:48:38;;;;;;;;;3.00;3.00;;;;;48.41;13.19;100796.06;5037647;28;45400;-83
2022/08/13 09:51:13;;;;;;;;;6.00;4.00;;;;;48.03;13.02;100790.34;5035539;28;46742;-83
2022/08/13 09:53:41;;;;;;;;;4.00;4.00;;;;;47.40;13.35;100789.97;5032600;28;45810;-82
2022/08/13 09:56:08;;;;;;;;;4.00;4.00;;;;;47.18;13.55;100825.47;5018010;28;45874;-81
2022/08/13 09:58:34;;;;;;;;;3.00;3.00;;;;;46.81;13.81;100800.88;5022347;28;45894;-82
2022/08/13 10:00:59;;;;;;;;;3.00;3.00;;;;;46.57;13.95;100809.88;5037269;28;46256;-83
2022/08/13 10:03:25;;;;;;;;;3.00;3.00;;;;;46.84;14.02;100803.66;5033808;28;45920;-82
2022/08/13 10:05:50;;;;;;;;;3.00;3.00;;;;;47.18;13.93;100804.34;5016961;28;45874;-82
2022/08/13 10:08:18;;;;;;;;;3.00;3.00;;;;;47.19;13.44;100771.09;5032686;28;44930;-81
2022/08/13 10:10:50;;;;;;;;;3.00;3.00;;;;;46.94;13.32;100798.03;5036880;28;47179;-83
2022/08/13 10:13:15;;;;;;;;;3.00;3.00;;;;;46.25;13.86;100811.56;5018446;28;45834;-84
2022/08/13 10:15:42;;;;;;;;;3.33;3.33;;;;;45.78;14.28;100794.50;5016241;28;45421;-81
2022/08/13 10:18:08;;;;;;;;;4.00;4.00;;;;;45.96;14.56;100783.31;5031975;28;45475;-83
2022/08/13 10:20:39;;;;;;;;;4.33;4.33;;;;;46.40;14.30;100811.16;5017695;28;45419;-81
2022/08/13 10:23:09;;;;;;;;;3.00;3.00;;;;;46.62;13.68;100793.97;5017181;28;46387;-81
2022/08/13 10:25:37;;;;;;;;;4.00;3.00;;;;;46.56;13.20;100796.59;5016515;28;45590;-82
2022/08/13 10:28:18;;;;;;;;;3.00;3.00;;;;;46.04;14.07;100786.84;5014869;28;45823;-82
2022/08/13 10:30:44;;;;;;;;;4.00;4.00;;;;;45.73;13.99;100766.91;5015606;28;46047;-82
2022/08/13 10:33:11;;;;;;;;;3.33;3.00;;;;;45.58;14.11;100778.03;5014941;28;47189;-82
2022/08/13 10:35:37;;;;;;;;;4.67;4.00;;;;;45.37;13.99;100810.41;5031575;28;45613;-82
2022/08/13 10:38:05;;;;;;;;;2.67;2.67;;;;;45.35;13.99;100790.56;5017863;28;45447;-82
2022/08/13 10:40:30;;;;;;;;;3.00;3.00;;;;;45.77;13.55;100793.69;5020661;28;45448;-83
2022/08/13 10:42:56;;;;;;;;;4.00;3.00;;;;;45.73;13.55;100787.19;5036208;28;47765;-83
2022/08/13 10:45:26;;;;;;;;;3.33;3.33;;;;;45.54;13.39;100796.78;5033312;28;45637;-84
2022/08/13 10:47:54;;;;;;;;;4.67;3.67;;;;;45.30;13.91;100789.03;5027460;28;45920;-80
2022/08/13 10:50:29;;;;;;;;;3.67;3.67;;;;;45.49;13.75;100785.75;5036328;28;45511;-83
2022/08/13 10:52:56;;;;;;;;;2.67;2.67;;;;;45.64;13.96;100776.22;5020178;28;47545;-82
2022/08/13 10:55:22;;;;;;;;;3.00;3.00;;;;;45.53;13.43;100772.78;5011284;28;45776;-82
2022/08/13 10:57:50;;;;;;;;;4.00;4.00;;;;;45.12;13.71;100769.19;5027798;28;45650;-83
2022/08/13 11:00:22;;;;;;;;;4.00;4.00;;;;;44.58;14.09;100783.94;5032256;28;45690;-82
2022/08/13 11:02:50;;;;;;;;;6.00;4.00;;;;;44.20;14.18;100776.38;5034675;28;45471;-84
2022/08/13 11:05:25;;;;;;;;;4.00;4.00;;;;;43.72;14.16;100728.53;5031462;28;45457;-81
2022/08/13 11:07:53;;;;;;;;;5.67;3.00;;;;;43.62;14.42;100743.97;5015990;28;45465;-82
2022/08/13 11:10:20;;;;;;;;;3.67;3.67;;;;;43.01;14.91;100734.16;5037085;28;45537;-81
2022/08/13 11:12:50;;;;;;;;;4.33;4.33;;;;;42.96;14.72;100741.19;5023626;28;46615;-82
2022/08/13 11:15:22;;;;;;;;;4.00;4.00;;;;;42.40;15.06;100775.25;5027254;28;45462;-83
2022/08/13 11:17:50;;;;;;;;;4.00;4.00;;;;;41.95;15.84;100774.03;5028209;28;45563;-80
2022/08/13 11:20:19;;;;;;;;;4.33;4.33;;;;;41.57;15.86;100776.78;5013482;28;45746;-81
2022/08/13 11:22:55;;;;;;;;;3.33;3.33;;;;;41.20;16.00;100768.78;5015444;28;45862;-82
2022/08/13 11:25:21;;;;;;;;;3.67;3.67;;;;;40.59;16.34;100739.06;5015270;28;45530;-80
2022/08/13 11:27:47;;;;;;;;;3.00;3.00;;;;;40.09;16.03;100733.41;5030200;28;45732;-81
2022/08/13 11:30:14;;;;;;;;;2.00;2.00;;;;;39.62;16.81;100744.09;5014424;28;45778;-79
2022/08/13 11:32:43;;;;;;;;;3.00;3.00;;;;;39.46;16.58;100771.09;5013675;28;47139;-78
2022/08/13 11:35:11;;;;;;;;;4.33;3.00;;;;;38.91;16.83;100768.47;5014220;28;45502;-78
2022/08/13 11:37:37;;;;;;;;;3.00;3.00;;;;;38.23;17.29;100763.19;5014335;28;45535;-78
2022/08/13 11:40:04;;;;;;;;;2.33;2.33;;;;;37.89;18.16;100755.56;5014542;28;45790;-80
2022/08/13 11:42:30;;;;;;;;;3.00;3.00;;;;;37.60;17.94;100754.47;5013618;28;46300;-80
2022/08/13 11:44:56;;;;;;;;;2.00;2.00;;;;;37.12;18.05;100758.03;5013176;28;45424;-81
2022/08/13 11:47:22;;;;;;;;;3.00;3.00;;;;;36.70;18.68;100745.66;5014150;28;45745;-78